createdAt,value
2022-11-06T00:00:36.381Z,9.90
2022-11-06T00:03:05.466Z,9.90
2022-11-06T00:05:50.846Z,9.90
2022-11-06T00:08:29.117Z,9.90
2022-11-06T00:10:57.676Z,9.90
2022-11-06T00:13:26.194Z,10.00
2022-11-06T00:15:55.870Z,10.00
2022-11-06T00:18:27.519Z,9.90
2022-11-06T00:20:55.615Z,10.00
2022-11-06T00:23:23.666Z,10.00
2022-11-06T00:25:53.111Z,10.10
2022-11-06T00:28:21.151Z,10.00
2022-11-06T00:30:49.424Z,9.90
2022-11-06T00:33:18.776Z,9.80
2022-11-06T00:35:47.027Z,9.70
2022-11-06T00:38:15.464Z,9.60
2022-11-06T00:40:43.893Z,9.60
2022-11-06T00:43:11.888Z,9.50
2022-11-06T00:45:40.135Z,9.50
2022-11-06T00:48:08.391Z,9.40
2022-11-06T00:50:37.835Z,9.40
2022-11-06T00:53:05.992Z,9.40
2022-11-06T00:55:34.147Z,9.40
2022-11-06T00:58:02.189Z,9.40
2022-11-06T01:00:30.423Z,9.40
2022-11-06T01:02:58.478Z,9.50
2022-11-06T01:05:26.776Z,9.40
2022-11-06T01:07:56.115Z,9.40
2022-11-06T01:10:24.261Z,9.40
2022-11-06T01:12:52.261Z,9.40
2022-11-06T01:15:20.424Z,9.30
2022-11-06T01:17:48.506Z,9.40
2022-11-06T01:20:16.654Z,9.30
2022-11-06T01:22:44.922Z,9.30
2022-11-06T01:25:14.323Z,9.30
2022-11-06T01:27:42.554Z,9.30
2022-11-06T01:30:11.814Z,9.30
2022-11-06T01:32:39.971Z,9.40
2022-11-06T01:35:08.626Z,9.40
2022-11-06T01:37:36.780Z,9.50
2022-11-06T01:40:05.298Z,9.50
2022-11-06T01:42:34.772Z,9.50
2022-11-06T01:45:35.525Z,9.60
2022-11-06T01:48:05.276Z,9.60
2022-11-06T01:50:34.013Z,9.60
2022-11-06T01:53:03.010Z,9.60
2022-11-06T01:55:34.520Z,9.60
2022-11-06T01:58:05.821Z,9.70
2022-11-06T02:00:34.172Z,9.70
2022-11-06T02:03:03.537Z,9.80
2022-11-06T02:05:32.457Z,9.80
2022-11-06T02:08:02.042Z,9.90
2022-11-06T02:10:31.206Z,9.90
2022-11-06T02:13:19.772Z,9.90
2022-11-06T02:15:52.687Z,9.90
2022-11-06T02:18:40.821Z,9.90
2022-11-06T02:21:38.016Z,9.90
2022-11-06T02:24:37.622Z,10.00
2022-11-06T02:27:11.732Z,10.10
2022-11-06T02:29:48.478Z,10.20
2022-11-06T02:32:21.793Z,10.10
2022-11-06T02:34:52.918Z,10.10
2022-11-06T02:37:26.573Z,10.00
2022-11-06T02:39:56.633Z,10.10
2022-11-06T02:42:29.221Z,10.10
2022-11-06T02:44:58.983Z,10.10
2022-11-06T02:47:31.179Z,10.00
2022-11-06T02:50:06.193Z,10.10
2022-11-06T02:52:38.246Z,10.10
2022-11-06T02:55:12.439Z,10.10
2022-11-06T02:57:47.152Z,10.10
2022-11-06T03:00:17.101Z,10.10
2022-11-06T03:02:50.922Z,10.10
2022-11-06T03:05:24.633Z,10.10
2022-11-06T03:07:57.545Z,10.10
2022-11-06T03:10:31.645Z,10.10
2022-11-06T03:13:10.445Z,10.00
2022-11-06T03:15:43.910Z,10.00
2022-11-06T03:18:16.096Z,10.00
2022-11-06T03:20:50.805Z,9.90
2022-11-06T03:23:25.461Z,9.90
2022-11-06T03:25:57.871Z,9.90
2022-11-06T03:28:33.468Z,9.90
2022-11-06T03:31:06.271Z,9.90
2022-11-06T03:33:38.654Z,9.90
2022-11-06T03:36:12.118Z,10.00
2022-11-06T03:38:43.577Z,10.00
2022-11-06T03:41:15.455Z,10.10
2022-11-06T03:43:48.696Z,10.10
2022-11-06T03:46:20.869Z,10.00
2022-11-06T03:48:52.351Z,9.90
2022-11-06T03:51:23.023Z,9.90
2022-11-06T03:53:53.935Z,9.80
2022-11-06T03:56:28.870Z,9.70
2022-11-06T03:59:02.755Z,9.60
2022-11-06T04:01:36.608Z,9.60
2022-11-06T04:04:07.538Z,9.50
2022-11-06T04:06:41.877Z,9.50
2022-11-06T04:09:31.808Z,9.50
2022-11-06T04:12:19.541Z,9.40
2022-11-06T04:14:52.163Z,9.40
2022-11-06T04:17:23.720Z,9.50
2022-11-06T04:19:53.682Z,9.50
2022-11-06T04:22:40.470Z,9.50
2022-11-06T04:25:51.167Z,9.50
2022-11-06T04:28:29.740Z,9.40
2022-11-06T04:31:07.303Z,9.40
2022-11-06T04:33:43.560Z,9.40
2022-11-06T04:36:22.819Z,9.40
2022-11-06T04:38:57.100Z,9.40
2022-11-06T04:41:34.539Z,9.50
2022-11-06T04:44:06.360Z,9.40
2022-11-06T04:46:40.670Z,9.50
2022-11-06T04:49:09.437Z,9.50
2022-11-06T04:51:40.104Z,9.50
2022-11-06T04:54:11.235Z,9.60
2022-11-06T04:56:45.545Z,9.60
2022-11-06T04:59:16.724Z,9.60
2022-11-06T05:01:47.243Z,9.60
2022-11-06T05:04:15.588Z,9.60
2022-11-06T05:06:43.828Z,9.60
2022-11-06T05:09:11.980Z,9.70
2022-11-06T05:11:40.283Z,9.70
2022-11-06T05:14:08.350Z,9.70
2022-11-06T05:16:36.879Z,9.60
2022-11-06T05:19:06.239Z,9.60
2022-11-06T05:21:51.589Z,9.50
2022-11-06T05:24:19.921Z,9.50
2022-11-06T05:26:48.127Z,9.50
2022-11-06T05:29:16.701Z,9.50
2022-11-06T05:31:44.669Z,9.50
2022-11-06T05:34:14.347Z,9.50
2022-11-06T05:36:42.358Z,9.50
2022-11-06T05:39:10.865Z,9.50
2022-11-06T05:41:38.937Z,9.50
2022-11-06T05:44:07.235Z,9.60
2022-11-06T05:46:48.092Z,9.60
2022-11-06T05:49:18.812Z,9.70
2022-11-06T05:51:47.237Z,9.70
2022-11-06T05:54:15.891Z,9.60
2022-11-06T05:56:44.194Z,9.50
2022-11-06T05:59:13.050Z,9.40
2022-11-06T06:01:41.561Z,9.40
2022-11-06T06:04:09.705Z,9.40
2022-11-06T06:06:39.702Z,9.30
2022-11-06T06:09:07.697Z,9.30
2022-11-06T06:11:35.936Z,9.30
2022-11-06T06:14:04.002Z,9.40
2022-11-06T06:16:32.117Z,9.40
2022-11-06T06:19:00.177Z,9.50
2022-11-06T06:21:28.210Z,9.50
2022-11-06T06:23:57.888Z,9.50
2022-11-06T06:26:25.887Z,9.50
2022-11-06T06:28:54.281Z,9.50
2022-11-06T06:31:22.293Z,9.50
2022-11-06T06:33:50.671Z,9.50
2022-11-06T06:36:18.662Z,9.50
2022-11-06T06:38:46.800Z,9.50
2022-11-06T06:41:16.476Z,9.50
2022-11-06T06:43:44.495Z,9.60
2022-11-06T06:46:12.805Z,9.60
2022-11-06T06:48:40.840Z,9.60
2022-11-06T06:51:09.502Z,9.70
2022-11-06T06:53:38.043Z,9.80
2022-11-06T06:56:06.892Z,9.80
2022-11-06T06:58:36.314Z,9.80
2022-11-06T07:01:10.998Z,9.80
2022-11-06T07:03:39.456Z,9.80
2022-11-06T07:06:08.747Z,9.90
2022-11-06T07:08:37.303Z,9.90
2022-11-06T07:11:07.944Z,10.00
2022-11-06T07:13:37.594Z,9.90
2022-11-06T07:16:06.039Z,9.90
2022-11-06T07:18:34.990Z,9.90
2022-11-06T07:21:06.404Z,9.90
2022-11-06T07:23:35.629Z,9.90
2022-11-06T07:26:04.163Z,10.00
2022-11-06T07:28:32.349Z,10.00
2022-11-06T07:31:03.163Z,10.00
2022-11-06T07:33:31.509Z,10.10
2022-11-06T07:36:04.402Z,10.10
2022-11-06T07:38:34.112Z,10.20
2022-11-06T07:41:06.191Z,10.20
2022-11-06T07:43:34.671Z,10.20
2022-11-06T07:46:06.836Z,10.10
2022-11-06T07:48:35.457Z,10.10
2022-11-06T07:51:04.700Z,10.00
2022-11-06T07:53:33.052Z,9.90
2022-11-06T07:56:01.288Z,9.90
2022-11-06T07:58:29.622Z,10.00
2022-11-06T08:00:59.731Z,10.00
2022-11-06T08:03:30.304Z,10.00
2022-11-06T08:05:58.881Z,10.10
2022-11-06T08:08:27.019Z,10.20
2022-11-06T08:10:55.270Z,10.30
2022-11-06T08:13:23.403Z,10.40
2022-11-06T08:15:51.403Z,10.30
2022-11-06T08:18:19.589Z,10.40
2022-11-06T08:20:49.010Z,10.60
2022-11-06T08:23:17.101Z,10.90
2022-11-06T08:25:45.166Z,11.10
2022-11-06T08:28:13.515Z,11.20
2022-11-06T08:30:41.836Z,11.30
2022-11-06T08:33:10.023Z,11.30
2022-11-06T08:35:38.791Z,11.30
2022-11-06T08:38:08.175Z,11.30
2022-11-06T08:40:38.811Z,11.30
2022-11-06T08:43:08.332Z,11.30
2022-11-06T08:45:38.614Z,11.60
2022-11-06T08:48:07.766Z,11.80
2022-11-06T08:50:37.467Z,11.80
2022-11-06T08:53:08.154Z,11.80
2022-11-06T08:55:38.368Z,11.80
2022-11-06T08:58:07.209Z,11.80
2022-11-06T09:00:36.360Z,11.90
2022-11-06T09:03:08.130Z,12.20
2022-11-06T09:05:36.233Z,12.40
2022-11-06T09:08:04.562Z,12.60
2022-11-06T09:10:33.996Z,12.80
2022-11-06T09:13:02.089Z,12.60
2022-11-06T09:15:30.131Z,12.80
2022-11-06T09:17:58.499Z,13.00
2022-11-06T09:20:27.240Z,13.00
2022-11-06T09:22:55.888Z,12.90
2022-11-06T09:25:23.887Z,13.10
2022-11-06T09:27:59.238Z,13.20
2022-11-06T09:30:29.195Z,13.40
2022-11-06T09:32:59.286Z,14.00
2022-11-06T09:35:29.308Z,14.70
2022-11-06T09:38:02.447Z,15.30
2022-11-06T09:40:34.902Z,15.90
2022-11-06T09:43:13.156Z,16.20
2022-11-06T09:45:42.331Z,16.80
2022-11-06T09:48:19.095Z,17.50
2022-11-06T09:50:52.569Z,18.70
2022-11-06T09:53:27.258Z,19.10
2022-11-06T09:55:58.384Z,19.60
2022-11-06T09:58:32.827Z,20.20
2022-11-06T10:01:07.967Z,20.60
2022-11-06T10:03:42.729Z,20.80
2022-11-06T10:06:11.751Z,22.10
2022-11-06T10:08:43.138Z,23.00
2022-11-06T10:11:34.762Z,24.00
2022-11-06T10:14:16.122Z,25.30
2022-11-06T10:16:53.791Z,26.30
2022-11-06T10:19:26.821Z,27.40
2022-11-06T10:22:03.063Z,27.50
2022-11-06T10:24:38.868Z,27.90
2022-11-06T10:27:17.479Z,28.70
2022-11-06T10:30:07.537Z,30.20
2022-11-06T10:33:03.669Z,29.90
2022-11-06T10:35:36.229Z,29.80
2022-11-06T10:38:08.522Z,27.50
2022-11-06T10:40:37.560Z,26.50
2022-11-06T10:43:13.795Z,26.30
2022-11-06T10:45:49.695Z,25.90
2022-11-06T10:48:29.086Z,26.60
2022-11-06T10:51:20.488Z,27.40
2022-11-06T10:53:57.322Z,27.90
2022-11-06T10:56:47.892Z,27.40
2022-11-06T10:59:17.149Z,25.90
2022-11-06T11:01:46.828Z,23.70
2022-11-06T11:04:15.024Z,22.30
2022-11-06T11:06:43.227Z,21.60
2022-11-06T11:09:31.700Z,21.00
2022-11-06T11:12:00.363Z,20.50
2022-11-06T11:14:30.142Z,19.70
2022-11-06T11:17:02.603Z,18.70
2022-11-06T11:19:41.149Z,18.40
2022-11-06T11:22:20.388Z,18.30
2022-11-06T11:25:02.839Z,18.30
2022-11-06T11:27:33.020Z,18.10
2022-11-06T11:30:01.260Z,18.20
2022-11-06T11:32:32.137Z,18.90
2022-11-06T11:35:00.720Z,19.60
2022-11-06T11:37:30.904Z,20.30
2022-11-06T11:40:20.831Z,20.40
2022-11-06T11:42:49.004Z,20.00
2022-11-06T11:45:19.854Z,19.70
2022-11-06T11:47:51.566Z,19.30
2022-11-06T11:50:31.896Z,18.70
2022-11-06T11:53:10.445Z,18.60
2022-11-06T11:55:42.405Z,18.30
2022-11-06T11:58:21.553Z,18.30
2022-11-06T12:00:56.331Z,18.60
2022-11-06T12:03:30.016Z,18.60
2022-11-06T12:06:08.902Z,18.70
2022-11-06T12:08:39.144Z,19.10
2022-11-06T12:11:08.742Z,19.70
2022-11-06T12:13:36.819Z,19.90
2022-11-06T12:16:08.665Z,19.90
2022-11-06T12:18:41.955Z,20.20
2022-11-06T12:21:15.570Z,19.90
2022-11-06T12:23:47.445Z,19.90
2022-11-06T12:26:25.292Z,19.60
2022-11-06T12:29:02.031Z,18.60
2022-11-06T12:31:39.178Z,17.90
2022-11-06T12:34:19.647Z,17.30
2022-11-06T12:37:02.553Z,16.70
2022-11-06T12:39:35.657Z,16.90
2022-11-06T12:42:05.453Z,17.40
2022-11-06T12:44:33.699Z,18.00
2022-11-06T12:47:09.169Z,18.90
2022-11-06T12:50:05.742Z,19.90
2022-11-06T12:52:51.816Z,20.60
2022-11-06T12:55:27.753Z,21.10
2022-11-06T12:58:12.909Z,20.70
2022-11-06T13:00:53.668Z,20.40
2022-11-06T13:03:42.803Z,19.60
2022-11-06T13:06:19.566Z,18.50
2022-11-06T13:08:55.278Z,17.60
2022-11-06T13:11:32.729Z,16.90
2022-11-06T13:14:14.729Z,16.70
2022-11-06T13:16:49.977Z,16.20
2022-11-06T13:19:25.815Z,16.50
2022-11-06T13:22:13.580Z,16.30
2022-11-06T13:24:49.070Z,16.40
2022-11-06T13:27:26.383Z,16.60
2022-11-06T13:29:57.498Z,16.50
2022-11-06T13:32:28.140Z,16.30
2022-11-06T13:34:57.533Z,16.00
2022-11-06T13:37:37.913Z,15.60
2022-11-06T13:40:19.074Z,15.20
2022-11-06T13:42:52.614Z,14.60
2022-11-06T13:45:22.778Z,14.40
2022-11-06T13:48:15.187Z,14.20
2022-11-06T13:50:51.972Z,14.20
2022-11-06T13:53:28.690Z,14.10
2022-11-06T13:56:06.732Z,14.10
2022-11-06T13:58:59.812Z,14.00
2022-11-06T14:01:42.979Z,13.90
2022-11-06T14:04:50.850Z,13.70
2022-11-06T14:07:22.623Z,13.60
2022-11-06T14:09:53.125Z,13.50
2022-11-06T14:12:23.432Z,13.50
2022-11-06T14:14:55.752Z,13.50
2022-11-06T14:17:25.431Z,13.50
2022-11-06T14:20:07.074Z,13.50
2022-11-06T14:22:36.783Z,13.50
2022-11-06T14:25:38.477Z,13.40
2022-11-06T14:28:08.119Z,13.40
2022-11-06T14:31:10.965Z,13.30
2022-11-06T14:34:01.185Z,13.20
2022-11-06T14:36:33.571Z,13.20
2022-11-06T14:39:03.738Z,13.10
2022-11-06T14:41:55.134Z,13.00
2022-11-06T14:44:49.397Z,12.90
2022-11-06T14:47:29.693Z,12.80
2022-11-06T14:49:59.941Z,12.70
2022-11-06T14:52:28.937Z,12.60
2022-11-06T14:55:05.214Z,12.50
2022-11-06T14:57:46.287Z,12.40
2022-11-06T15:00:36.382Z,12.30
2022-11-06T15:03:07.883Z,12.30
2022-11-06T15:05:42.179Z,12.20
2022-11-06T15:08:11.062Z,12.10
2022-11-06T15:10:51.000Z,12.10
2022-11-06T15:13:31.250Z,12.10
2022-11-06T15:16:06.047Z,12.00
2022-11-06T15:18:37.467Z,12.00
2022-11-06T15:21:10.615Z,11.90
2022-11-06T15:23:43.690Z,11.90
2022-11-06T15:26:23.928Z,11.80
2022-11-06T15:29:07.576Z,11.80
2022-11-06T15:31:38.610Z,11.80
2022-11-06T15:34:14.082Z,11.70
2022-11-06T15:36:46.129Z,11.70
2022-11-06T15:39:25.171Z,11.60
2022-11-06T15:41:53.479Z,11.60
2022-11-06T15:44:22.591Z,11.60
2022-11-06T15:46:55.877Z,11.50
2022-11-06T15:49:23.922Z,11.50
2022-11-06T15:51:54.041Z,11.40
2022-11-06T15:54:36.636Z,11.40
2022-11-06T15:57:09.858Z,11.40
2022-11-06T15:59:38.067Z,11.30
2022-11-06T16:02:16.223Z,11.30
2022-11-06T16:04:46.045Z,11.30
2022-11-06T16:07:15.751Z,11.30
2022-11-06T16:09:44.718Z,11.30
2022-11-06T16:12:15.768Z,11.30
2022-11-06T16:14:45.233Z,11.20
2022-11-06T16:17:23.272Z,11.10
2022-11-06T16:19:53.522Z,11.10
2022-11-06T16:22:29.674Z,11.10
2022-11-06T16:25:01.457Z,11.00
2022-11-06T16:27:35.509Z,11.00
2022-11-06T16:30:05.172Z,10.90
2022-11-06T16:32:40.806Z,10.90
2022-11-06T16:35:33.501Z,10.90
2022-11-06T16:38:44.738Z,10.90
2022-11-06T16:41:37.328Z,10.80
2022-11-06T16:44:30.973Z,10.80
2022-11-06T16:47:15.420Z,10.80
2022-11-06T16:49:52.608Z,10.80
2022-11-06T16:52:26.329Z,10.80
2022-11-06T16:54:56.155Z,10.80
2022-11-06T16:57:27.424Z,10.70
2022-11-06T17:00:02.698Z,10.80
2022-11-06T17:02:33.959Z,10.70
2022-11-06T17:05:16.388Z,10.70
2022-11-06T17:07:46.001Z,10.70
2022-11-06T17:10:42.128Z,10.80
2022-11-06T17:13:16.355Z,10.80
2022-11-06T17:15:46.423Z,10.80
2022-11-06T17:18:20.291Z,10.80
2022-11-06T17:21:00.726Z,10.80
2022-11-06T17:23:30.360Z,10.80
2022-11-06T17:26:00.935Z,10.80
2022-11-06T17:28:29.071Z,10.80
2022-11-06T17:30:57.171Z,10.80
2022-11-06T17:33:25.520Z,10.80
2022-11-06T17:35:53.541Z,10.80
2022-11-06T17:38:23.202Z,10.80
2022-11-06T17:40:51.300Z,10.80
2022-11-06T17:43:19.392Z,10.80
2022-11-06T17:45:49.944Z,10.80
2022-11-06T17:48:18.505Z,10.80
2022-11-06T17:51:04.235Z,10.80
2022-11-06T17:53:33.652Z,10.80
2022-11-06T17:56:04.449Z,10.80
2022-11-06T17:58:32.586Z,10.90
2022-11-06T18:01:07.147Z,10.90
2022-11-06T18:03:36.695Z,10.90
2022-11-06T18:06:05.386Z,10.90
2022-11-06T18:08:34.744Z,10.90
2022-11-06T18:11:02.782Z,11.00
2022-11-06T18:13:31.874Z,10.90
2022-11-06T18:15:59.895Z,10.90
2022-11-06T18:18:29.219Z,10.90
2022-11-06T18:20:57.627Z,10.90
2022-11-06T18:23:25.762Z,10.90
2022-11-06T18:25:58.920Z,10.90
2022-11-06T18:28:27.102Z,10.90
2022-11-06T18:30:55.191Z,10.90
2022-11-06T18:33:23.211Z,11.00
2022-11-06T18:35:52.144Z,11.00
2022-11-06T18:38:20.536Z,11.00
2022-11-06T18:40:51.607Z,11.00
2022-11-06T18:43:21.406Z,11.10
2022-11-06T18:45:49.833Z,11.10
2022-11-06T18:48:21.406Z,11.10
2022-11-06T18:50:50.241Z,11.10
2022-11-06T18:53:18.270Z,11.10
2022-11-06T18:55:47.181Z,11.10
2022-11-06T18:58:16.091Z,11.10
2022-11-06T19:00:45.983Z,11.10
2022-11-06T19:03:14.167Z,11.10
2022-11-06T19:05:48.070Z,11.10
2022-11-06T19:08:16.481Z,11.10
2022-11-06T19:10:45.028Z,11.00
2022-11-06T19:13:13.674Z,10.80
2022-11-06T19:15:43.017Z,10.60
2022-11-06T19:18:13.081Z,10.50
2022-11-06T19:20:41.762Z,10.40
2022-11-06T19:23:13.750Z,10.00
2022-11-06T19:25:42.569Z,9.80
2022-11-06T19:28:11.431Z,9.50
2022-11-06T19:30:39.855Z,9.40
2022-11-06T19:33:08.733Z,9.20
2022-11-06T19:35:39.750Z,9.10
2022-11-06T19:38:08.260Z,8.90
2022-11-06T19:40:36.264Z,8.70
2022-11-06T19:43:06.960Z,8.60
2022-11-06T19:45:36.581Z,8.40
2022-11-06T19:48:07.015Z,8.30
2022-11-06T19:50:58.727Z,8.20
2022-11-06T19:53:25.916Z,8.10
2022-11-06T19:55:54.053Z,8.10
2022-11-06T19:58:22.844Z,8.10
2022-11-06T20:00:50.906Z,8.00
2022-11-06T20:03:19.204Z,7.90
2022-11-06T20:05:48.814Z,7.90
2022-11-06T20:08:16.881Z,7.80
2022-11-06T20:10:45.349Z,7.70
2022-11-06T20:13:13.738Z,7.70
2022-11-06T20:15:42.074Z,7.70
2022-11-06T20:18:10.181Z,7.70
2022-11-06T20:20:38.479Z,7.60
2022-11-06T20:23:08.035Z,7.60
2022-11-06T20:25:36.091Z,7.60
2022-11-06T20:28:04.723Z,7.50
2022-11-06T20:30:32.979Z,7.50
2022-11-06T20:33:01.131Z,7.50
2022-11-06T20:35:29.458Z,7.40
2022-11-06T20:37:57.604Z,7.40
2022-11-06T20:40:31.860Z,7.40
2022-11-06T20:43:02.962Z,7.40
2022-11-06T20:45:31.324Z,7.40
2022-11-06T20:47:59.715Z,7.40
2022-11-06T20:50:28.016Z,7.40
2022-11-06T20:52:56.064Z,7.50
2022-11-06T20:55:24.487Z,7.50
2022-11-06T20:57:53.855Z,7.50
2022-11-06T21:00:22.642Z,7.60
2022-11-06T21:02:51.773Z,7.60
2022-11-06T21:05:20.407Z,7.60
2022-11-06T21:07:48.580Z,7.70
2022-11-06T21:10:17.059Z,7.70
2022-11-06T21:12:45.206Z,7.80
2022-11-06T21:15:14.810Z,7.80
2022-11-06T21:17:43.564Z,7.80
2022-11-06T21:20:11.703Z,7.80
2022-11-06T21:22:39.760Z,7.90
2022-11-06T21:25:08.705Z,7.90
2022-11-06T21:27:36.800Z,8.00
2022-11-06T21:30:05.500Z,8.00
2022-11-06T21:32:34.962Z,8.00
2022-11-06T21:35:03.117Z,8.10
2022-11-06T21:37:33.842Z,8.20
2022-11-06T21:40:01.970Z,8.20
2022-11-06T21:42:30.104Z,8.20
2022-11-06T21:44:58.134Z,8.30
2022-11-06T21:47:26.392Z,8.40
2022-11-06T21:49:55.781Z,8.40
2022-11-06T21:52:41.615Z,8.40
2022-11-06T21:55:28.259Z,8.50
2022-11-06T21:57:56.745Z,8.50
2022-11-06T22:00:24.795Z,8.50
2022-11-06T22:02:52.985Z,8.50
2022-11-06T22:05:23.095Z,8.50
2022-11-06T22:07:51.124Z,8.50
2022-11-06T22:10:19.459Z,8.60
2022-11-06T22:12:47.501Z,8.70
2022-11-06T22:15:15.710Z,8.70
2022-11-06T22:17:43.833Z,8.70
2022-11-06T22:20:12.928Z,8.70
2022-11-06T22:22:42.492Z,8.80
2022-11-06T22:25:11.103Z,8.80
2022-11-06T22:27:41.062Z,8.80
2022-11-06T22:30:10.617Z,8.90
2022-11-06T22:32:38.899Z,8.80
2022-11-06T22:35:07.118Z,8.90
2022-11-06T22:37:35.169Z,9.00
2022-11-06T22:40:05.330Z,9.00
2022-11-06T22:42:33.651Z,9.00
2022-11-06T22:45:01.769Z,9.00
2022-11-06T22:47:29.833Z,9.10
2022-11-06T22:49:58.023Z,9.10
2022-11-06T22:52:26.124Z,9.10
2022-11-06T22:54:54.213Z,9.20
2022-11-06T22:57:23.745Z,9.30
2022-11-06T22:59:51.794Z,9.30
2022-11-06T23:02:19.925Z,9.30
2022-11-06T23:04:48.056Z,9.40
2022-11-06T23:07:16.280Z,9.40
2022-11-06T23:09:44.451Z,9.40
2022-11-06T23:12:13.794Z,9.50
2022-11-06T23:14:43.677Z,9.60
2022-11-06T23:17:11.668Z,9.60
2022-11-06T23:19:39.835Z,9.60
2022-11-06T23:22:25.153Z,9.70
2022-11-06T23:24:53.774Z,9.70
2022-11-06T23:27:21.835Z,9.80
2022-11-06T23:29:51.807Z,9.80
2022-11-06T23:32:19.839Z,9.70
2022-11-06T23:34:48.017Z,9.80
2022-11-06T23:37:16.212Z,9.80
2022-11-06T23:39:44.304Z,9.80
2022-11-06T23:42:14.970Z,9.80
2022-11-06T23:45:00.708Z,9.80
2022-11-06T23:47:30.386Z,9.90
2022-11-06T23:49:59.436Z,9.90
2022-11-06T23:52:28.142Z,9.90
2022-11-06T23:54:56.340Z,9.80
2022-11-06T23:57:24.356Z,9.80
2022-11-06T23:59:52.524Z,9.90
